Terminal Aerodrome Forecast
Issued by NWS Tuscon, AZ

Home | Current Version | Previous Version | Text Only | Print | Product List | Glossary On
Versions: 1 2 3 4 5 6 7 8 9 10 11 12 13
000
FTUS45 KTWC 020500
TAFDUG
TAF
KDUG 020536Z 0206/0306 19009KT P6SM SCT050 BKN120
     FM021500 16012KT P6SM VCSH SCT040 BKN080
      TEMPO 0215/0219 BKN040
     FM021900 20025G35KT P6SM VCSH BKN040
     FM030200 23014G22KT P6SM VCSH SCT020 BKN040=

USA.gov is the U.S. government's official web portal to all federal, state and local government web resources and services.